sensor_id;sensor_type;location;lat;lon;timestamp;P1;durP1;ratioP1;P2;durP2;ratioP2
58097;SDS011;43913;55.940;37.504;2023-03-23T00:02:26;2.60;;;2.22;;
58097;SDS011;43913;55.940;37.504;2023-03-23T00:04:52;3.45;;;2.75;;
58097;SDS011;43913;55.940;37.504;2023-03-23T00:07:19;3.38;;;2.80;;
58097;SDS011;43913;55.940;37.504;2023-03-23T00:09:53;2.47;;;2.27;;
58097;SDS011;43913;55.940;37.504;2023-03-23T00:12:20;2.88;;;2.58;;
58097;SDS011;43913;55.940;37.504;2023-03-23T00:14:59;2.83;;;2.22;;
58097;SDS011;43913;55.940;37.504;2023-03-23T00:17:26;2.63;;;2.42;;
58097;SDS011;43913;55.940;37.504;2023-03-23T00:19:53;3.00;;;2.30;;
58097;SDS011;43913;55.940;37.504;2023-03-23T00:22:19;2.78;;;2.45;;
58097;SDS011;43913;55.940;37.504;2023-03-23T00:24:46;2.97;;;2.40;;
58097;SDS011;43913;55.940;37.504;2023-03-23T00:27:13;2.67;;;2.47;;
58097;SDS011;43913;55.940;37.504;2023-03-23T00:29:41;2.63;;;2.42;;
58097;SDS011;43913;55.940;37.504;2023-03-23T00:32:10;3.20;;;2.40;;
58097;SDS011;43913;55.940;37.504;2023-03-23T00:34:40;2.17;;;1.98;;
58097;SDS011;43913;55.940;37.504;2023-03-23T00:37:08;2.45;;;2.20;;
58097;SDS011;43913;55.940;37.504;2023-03-23T00:39:34;2.72;;;1.75;;
58097;SDS011;43913;55.940;37.504;2023-03-23T00:42:04;2.83;;;2.38;;
58097;SDS011;43913;55.940;37.504;2023-03-23T00:44:31;2.55;;;2.35;;
58097;SDS011;43913;55.940;37.504;2023-03-23T00:46:58;4.05;;;2.35;;
58097;SDS011;43913;55.940;37.504;2023-03-23T00:49:24;2.55;;;2.22;;
58097;SDS011;43913;55.940;37.504;2023-03-23T00:51:52;4.80;;;2.40;;
58097;SDS011;43913;55.940;37.504;2023-03-23T00:54:19;3.65;;;2.70;;
58097;SDS011;43913;55.940;37.504;2023-03-23T00:56:48;3.13;;;2.00;;
58097;SDS011;43913;55.940;37.504;2023-03-23T00:59:14;2.75;;;2.42;;
58097;SDS011;43913;55.940;37.504;2023-03-23T01:01:41;3.25;;;2.63;;
58097;SDS011;43913;55.940;37.504;2023-03-23T01:04:07;4.35;;;2.60;;
58097;SDS011;43913;55.940;37.504;2023-03-23T01:06:35;3.90;;;2.53;;
58097;SDS011;43913;55.940;37.504;2023-03-23T01:09:04;2.70;;;2.50;;
58097;SDS011;43913;55.940;37.504;2023-03-23T01:11:45;2.67;;;2.33;;
58097;SDS011;43913;55.940;37.504;2023-03-23T01:14:11;3.03;;;2.72;;
58097;SDS011;43913;55.940;37.504;2023-03-23T01:16:38;3.13;;;2.83;;
58097;SDS011;43913;55.940;37.504;2023-03-23T01:19:04;2.88;;;2.55;;
58097;SDS011;43913;55.940;37.504;2023-03-23T01:21:30;3.78;;;2.53;;
58097;SDS011;43913;55.940;37.504;2023-03-23T01:23:56;3.15;;;2.63;;
58097;SDS011;43913;55.940;37.504;2023-03-23T01:26:23;6.53;;;2.30;;
58097;SDS011;43913;55.940;37.504;2023-03-23T01:28:50;2.40;;;2.20;;
58097;SDS011;43913;55.940;37.504;2023-03-23T01:31:17;2.90;;;2.60;;
58097;SDS011;43913;55.940;37.504;2023-03-23T01:33:44;2.90;;;2.60;;
58097;SDS011;43913;55.940;37.504;2023-03-23T01:36:12;4.70;;;2.47;;
58097;SDS011;43913;55.940;37.504;2023-03-23T01:38:41;2.75;;;2.30;;
58097;SDS011;43913;55.940;37.504;2023-03-23T01:41:07;3.85;;;2.40;;
58097;SDS011;43913;55.940;37.504;2023-03-23T01:43:33;2.83;;;2.30;;
58097;SDS011;43913;55.940;37.504;2023-03-23T01:45:59;3.10;;;2.63;;
58097;SDS011;43913;55.940;37.504;2023-03-23T01:48:26;2.58;;;2.38;;
58097;SDS011;43913;55.940;37.504;2023-03-23T01:50:57;3.88;;;2.58;;
58097;SDS011;43913;55.940;37.504;2023-03-23T01:53:28;3.53;;;2.85;;
58097;SDS011;43913;55.940;37.504;2023-03-23T01:55:58;2.63;;;2.35;;
58097;SDS011;43913;55.940;37.504;2023-03-23T01:58:26;6.03;;;2.90;;
58097;SDS011;43913;55.940;37.504;2023-03-23T02:00:54;2.45;;;2.25;;
58097;SDS011;43913;55.940;37.504;2023-03-23T02:03:21;5.47;;;2.45;;
58097;SDS011;43913;55.940;37.504;2023-03-23T02:05:48;5.28;;;2.90;;
58097;SDS011;43913;55.940;37.504;2023-03-23T02:08:22;6.30;;;3.22;;
58097;SDS011;43913;55.940;37.504;2023-03-23T02:10:48;3.97;;;2.60;;
58097;SDS011;43913;55.940;37.504;2023-03-23T02:13:14;4.05;;;2.47;;
58097;SDS011;43913;55.940;37.504;2023-03-23T02:18:34;3.65;;;2.67;;
58097;SDS011;43913;55.940;37.504;2023-03-23T02:23:46;4.55;;;3.28;;
58097;SDS011;43913;55.940;37.504;2023-03-23T02:35:00;5.32;;;3.30;;
58097;SDS011;43913;55.940;37.504;2023-03-23T02:37:32;4.80;;;3.70;;
58097;SDS011;43913;55.940;37.504;2023-03-23T02:40:16;5.15;;;3.50;;
58097;SDS011;43913;55.940;37.504;2023-03-23T02:42:47;4.43;;;3.33;;
58097;SDS011;43913;55.940;37.504;2023-03-23T02:45:15;4.22;;;3.00;;
58097;SDS011;43913;55.940;37.504;2023-03-23T02:47:51;4.15;;;3.00;;
58097;SDS011;43913;55.940;37.504;2023-03-23T02:50:18;3.72;;;2.80;;
58097;SDS011;43913;55.940;37.504;2023-03-23T02:52:47;3.80;;;3.10;;
58097;SDS011;43913;55.940;37.504;2023-03-23T02:55:14;2.97;;;2.67;;
58097;SDS011;43913;55.940;37.504;2023-03-23T02:57:41;3.53;;;2.67;;
58097;SDS011;43913;55.940;37.504;2023-03-23T03:00:12;3.00;;;2.70;;
58097;SDS011;43913;55.940;37.504;2023-03-23T03:02:40;4.57;;;2.63;;
58097;SDS011;43913;55.940;37.504;2023-03-23T03:13:32;3.38;;;3.03;;
58097;SDS011;43913;55.940;37.504;2023-03-23T03:16:22;3.63;;;2.90;;
58097;SDS011;43913;55.940;37.504;2023-03-23T03:19:01;3.90;;;2.90;;
58097;SDS011;43913;55.940;37.504;2023-03-23T03:21:30;4.25;;;3.10;;
58097;SDS011;43913;55.940;37.504;2023-03-23T03:23:59;5.55;;;2.72;;
58097;SDS011;43913;55.940;37.504;2023-03-23T03:26:27;5.78;;;3.30;;
58097;SDS011;43913;55.940;37.504;2023-03-23T03:28:59;5.05;;;2.55;;
58097;SDS011;43913;55.940;37.504;2023-03-23T03:31:30;3.22;;;2.92;;
58097;SDS011;43913;55.940;37.504;2023-03-23T03:33:58;3.70;;;3.13;;
58097;SDS011;43913;55.940;37.504;2023-03-23T03:36:27;4.22;;;3.50;;
58097;SDS011;43913;55.940;37.504;2023-03-23T03:39:02;3.40;;;2.88;;
58097;SDS011;43913;55.940;37.504;2023-03-23T03:41:35;3.33;;;2.58;;
58097;SDS011;43913;55.940;37.504;2023-03-23T03:44:02;5.70;;;2.88;;
58097;SDS011;43913;55.940;37.504;2023-03-23T03:46:28;4.55;;;3.63;;
58097;SDS011;43913;55.940;37.504;2023-03-23T03:48:57;4.90;;;3.50;;
58097;SDS011;43913;55.940;37.504;2023-03-23T03:51:24;3.85;;;2.55;;
58097;SDS011;43913;55.940;37.504;2023-03-23T03:53:51;4.97;;;3.03;;
58097;SDS011;43913;55.940;37.504;2023-03-23T03:56:17;4.15;;;2.67;;
58097;SDS011;43913;55.940;37.504;2023-03-23T03:58:50;4.50;;;2.92;;
58097;SDS011;43913;55.940;37.504;2023-03-23T04:01:25;4.50;;;3.42;;
58097;SDS011;43913;55.940;37.504;2023-03-23T04:03:51;3.55;;;2.58;;
58097;SDS011;43913;55.940;37.504;2023-03-23T04:06:27;4.25;;;3.25;;
58097;SDS011;43913;55.940;37.504;2023-03-23T04:08:57;5.35;;;3.05;;
58097;SDS011;43913;55.940;37.504;2023-03-23T04:11:24;5.68;;;3.03;;
58097;SDS011;43913;55.940;37.504;2023-03-23T04:13:54;4.07;;;3.28;;
58097;SDS011;43913;55.940;37.504;2023-03-23T04:16:22;4.30;;;2.85;;
58097;SDS011;43913;55.940;37.504;2023-03-23T04:18:48;6.00;;;3.30;;
58097;SDS011;43913;55.940;37.504;2023-03-23T04:21:16;3.50;;;2.90;;
58097;SDS011;43913;55.940;37.504;2023-03-23T04:23:44;4.78;;;3.03;;
58097;SDS011;43913;55.940;37.504;2023-03-23T04:26:11;3.55;;;2.63;;
58097;SDS011;43913;55.940;37.504;2023-03-23T04:28:41;9.30;;;3.33;;
58097;SDS011;43913;55.940;37.504;2023-03-23T04:31:27;6.05;;;3.85;;
58097;SDS011;43913;55.940;37.504;2023-03-23T04:34:02;5.55;;;3.47;;
58097;SDS011;43913;55.940;37.504;2023-03-23T04:36:35;4.15;;;3.75;;
58097;SDS011;43913;55.940;37.504;2023-03-23T04:39:08;5.63;;;3.35;;
58097;SDS011;43913;55.940;37.504;2023-03-23T04:41:36;5.95;;;3.22;;
58097;SDS011;43913;55.940;37.504;2023-03-23T04:44:14;6.07;;;3.75;;
58097;SDS011;43913;55.940;37.504;2023-03-23T04:46:47;6.65;;;4.18;;
58097;SDS011;43913;55.940;37.504;2023-03-23T04:49:17;8.45;;;3.63;;
58097;SDS011;43913;55.940;37.504;2023-03-23T04:51:48;8.38;;;3.72;;
58097;SDS011;43913;55.940;37.504;2023-03-23T04:54:23;4.72;;;3.20;;
58097;SDS011;43913;55.940;37.504;2023-03-23T04:56:53;4.57;;;3.53;;
58097;SDS011;43913;55.940;37.504;2023-03-23T04:59:19;4.53;;;3.70;;
58097;SDS011;43913;55.940;37.504;2023-03-23T05:01:56;4.90;;;3.83;;
58097;SDS011;43913;55.940;37.504;2023-03-23T05:04:23;9.15;;;4.50;;
58097;SDS011;43913;55.940;37.504;2023-03-23T05:07:02;11.02;;;4.05;;
58097;SDS011;43913;55.940;37.504;2023-03-23T05:09:31;5.32;;;4.00;;
58097;SDS011;43913;55.940;37.504;2023-03-23T05:11:56;6.90;;;4.13;;
58097;SDS011;43913;55.940;37.504;2023-03-23T05:14:25;6.38;;;4.80;;
58097;SDS011;43913;55.940;37.504;2023-03-23T05:17:00;5.57;;;3.67;;
58097;SDS011;43913;55.940;37.504;2023-03-23T05:19:27;5.22;;;3.70;;
58097;SDS011;43913;55.940;37.504;2023-03-23T05:21:56;4.75;;;3.35;;
58097;SDS011;43913;55.940;37.504;2023-03-23T05:24:30;6.72;;;4.55;;
58097;SDS011;43913;55.940;37.504;2023-03-23T05:27:01;4.13;;;3.53;;
58097;SDS011;43913;55.940;37.504;2023-03-23T05:29:32;5.45;;;3.90;;
58097;SDS011;43913;55.940;37.504;2023-03-23T05:32:02;6.63;;;3.85;;
58097;SDS011;43913;55.940;37.504;2023-03-23T05:34:32;4.70;;;4.13;;
58097;SDS011;43913;55.940;37.504;2023-03-23T05:37:02;5.82;;;4.63;;
58097;SDS011;43913;55.940;37.504;2023-03-23T05:39:36;7.25;;;4.93;;
58097;SDS011;43913;55.940;37.504;2023-03-23T05:42:23;5.20;;;4.38;;
58097;SDS011;43913;55.940;37.504;2023-03-23T05:45:09;5.20;;;3.83;;
58097;SDS011;43913;55.940;37.504;2023-03-23T05:47:39;5.43;;;4.45;;
58097;SDS011;43913;55.940;37.504;2023-03-23T05:50:09;6.93;;;5.00;;
58097;SDS011;43913;55.940;37.504;2023-03-23T05:52:37;6.00;;;4.55;;
58097;SDS011;43913;55.940;37.504;2023-03-23T05:55:06;7.13;;;4.18;;
58097;SDS011;43913;55.940;37.504;2023-03-23T05:57:35;5.03;;;4.30;;
58097;SDS011;43913;55.940;37.504;2023-03-23T06:00:04;8.38;;;4.75;;
58097;SDS011;43913;55.940;37.504;2023-03-23T06:02:42;6.68;;;5.22;;
58097;SDS011;43913;55.940;37.504;2023-03-23T06:05:12;8.75;;;5.07;;
58097;SDS011;43913;55.940;37.504;2023-03-23T06:07:42;5.18;;;4.53;;
58097;SDS011;43913;55.940;37.504;2023-03-23T06:10:08;7.72;;;4.60;;
58097;SDS011;43913;55.940;37.504;2023-03-23T06:12:41;5.32;;;4.40;;
58097;SDS011;43913;55.940;37.504;2023-03-23T06:15:07;5.72;;;4.47;;
58097;SDS011;43913;55.940;37.504;2023-03-23T06:17:52;5.03;;;4.55;;
58097;SDS011;43913;55.940;37.504;2023-03-23T06:20:24;7.63;;;5.00;;
58097;SDS011;43913;55.940;37.504;2023-03-23T06:22:51;6.97;;;5.07;;
58097;SDS011;43913;55.940;37.504;2023-03-23T06:25:26;6.60;;;5.05;;
58097;SDS011;43913;55.940;37.504;2023-03-23T06:27:51;6.88;;;4.90;;
58097;SDS011;43913;55.940;37.504;2023-03-23T06:30:18;5.57;;;5.07;;
58097;SDS011;43913;55.940;37.504;2023-03-23T06:32:43;4.90;;;4.40;;
58097;SDS011;43913;55.940;37.504;2023-03-23T06:35:13;5.70;;;4.65;;
58097;SDS011;43913;55.940;37.504;2023-03-23T06:38:15;11.63;;;5.68;;
58097;SDS011;43913;55.940;37.504;2023-03-23T06:40:54;6.70;;;5.80;;
58097;SDS011;43913;55.940;37.504;2023-03-23T06:43:21;7.35;;;5.25;;
58097;SDS011;43913;55.940;37.504;2023-03-23T06:45:54;6.70;;;5.50;;
58097;SDS011;43913;55.940;37.504;2023-03-23T06:48:40;8.68;;;5.70;;
58097;SDS011;43913;55.940;37.504;2023-03-23T06:51:08;6.72;;;5.43;;
58097;SDS011;43913;55.940;37.504;2023-03-23T06:53:36;7.93;;;4.88;;
58097;SDS011;43913;55.940;37.504;2023-03-23T06:56:04;7.03;;;5.82;;
58097;SDS011;43913;55.940;37.504;2023-03-23T06:58:32;6.30;;;4.75;;
58097;SDS011;43913;55.940;37.504;2023-03-23T07:00:58;8.52;;;5.03;;
58097;SDS011;43913;55.940;37.504;2023-03-23T07:03:37;6.75;;;4.80;;
58097;SDS011;43913;55.940;37.504;2023-03-23T07:06:03;5.78;;;4.80;;
58097;SDS011;43913;55.940;37.504;2023-03-23T07:08:33;6.47;;;4.95;;
58097;SDS011;43913;55.940;37.504;2023-03-23T07:11:02;6.00;;;4.20;;
58097;SDS011;43913;55.940;37.504;2023-03-23T07:13:29;6.95;;;5.53;;
58097;SDS011;43913;55.940;37.504;2023-03-23T07:15:58;7.38;;;5.32;;
58097;SDS011;43913;55.940;37.504;2023-03-23T07:18:24;5.70;;;5.10;;
58097;SDS011;43913;55.940;37.504;2023-03-23T07:20:53;5.15;;;4.65;;
58097;SDS011;43913;55.940;37.504;2023-03-23T07:23:22;5.63;;;5.07;;
58097;SDS011;43913;55.940;37.504;2023-03-23T07:25:57;5.95;;;4.88;;
58097;SDS011;43913;55.940;37.504;2023-03-23T07:28:29;7.00;;;5.15;;
58097;SDS011;43913;55.940;37.504;2023-03-23T07:31:00;7.72;;;5.38;;
58097;SDS011;43913;55.940;37.504;2023-03-23T07:33:26;5.47;;;4.97;;
58097;SDS011;43913;55.940;37.504;2023-03-23T07:35:54;8.43;;;5.30;;
58097;SDS011;43913;55.940;37.504;2023-03-23T07:38:21;8.15;;;4.40;;
58097;SDS011;43913;55.940;37.504;2023-03-23T07:40:48;7.32;;;5.18;;
58097;SDS011;43913;55.940;37.504;2023-03-23T07:43:16;7.15;;;5.22;;
58097;SDS011;43913;55.940;37.504;2023-03-23T07:45:57;4.93;;;4.53;;
58097;SDS011;43913;55.940;37.504;2023-03-23T07:48:28;6.50;;;4.80;;
58097;SDS011;43913;55.940;37.504;2023-03-23T07:50:54;5.22;;;4.75;;
58097;SDS011;43913;55.940;37.504;2023-03-23T07:53:20;8.18;;;4.53;;
58097;SDS011;43913;55.940;37.504;2023-03-23T07:55:55;5.10;;;4.60;;
58097;SDS011;43913;55.940;37.504;2023-03-23T07:58:41;5.38;;;4.88;;
58097;SDS011;43913;55.940;37.504;2023-03-23T08:01:07;5.40;;;4.90;;
58097;SDS011;43913;55.940;37.504;2023-03-23T08:03:34;10.32;;;5.25;;
58097;SDS011;43913;55.940;37.504;2023-03-23T08:06:20;5.88;;;4.53;;
58097;SDS011;43913;55.940;37.504;2023-03-23T08:09:09;7.05;;;4.75;;
58097;SDS011;43913;55.940;37.504;2023-03-23T08:12:01;5.85;;;4.78;;
58097;SDS011;43913;55.940;37.504;2023-03-23T08:14:46;5.43;;;4.10;;
58097;SDS011;43913;55.940;37.504;2023-03-23T08:17:36;5.05;;;4.43;;
58097;SDS011;43913;55.940;37.504;2023-03-23T08:20:20;6.47;;;4.10;;
58097;SDS011;43913;55.940;37.504;2023-03-23T08:23:10;7.40;;;4.07;;
58097;SDS011;43913;55.940;37.504;2023-03-23T08:25:55;5.10;;;4.60;;
58097;SDS011;43913;55.940;37.504;2023-03-23T08:28:41;7.35;;;5.63;;
58097;SDS011;43913;55.940;37.504;2023-03-23T08:31:35;5.80;;;3.97;;
58097;SDS011;43913;55.940;37.504;2023-03-23T08:34:25;6.32;;;4.38;;
58097;SDS011;43913;55.940;37.504;2023-03-23T08:37:14;5.15;;;4.65;;
58097;SDS011;43913;55.940;37.504;2023-03-23T08:39:40;4.50;;;4.10;;
58097;SDS011;43913;55.940;37.504;2023-03-23T08:42:27;4.57;;;3.53;;
58097;SDS011;43913;55.940;37.504;2023-03-23T08:45:02;5.45;;;3.70;;
58097;SDS011;43913;55.940;37.504;2023-03-23T08:47:44;5.38;;;4.03;;
58097;SDS011;43913;55.940;37.504;2023-03-23T08:50:34;5.53;;;3.88;;
58097;SDS011;43913;55.940;37.504;2023-03-23T08:53:23;8.52;;;4.32;;
58097;SDS011;43913;55.940;37.504;2023-03-23T08:56:08;4.65;;;4.25;;
58097;SDS011;43913;55.940;37.504;2023-03-23T08:58:54;5.13;;;4.40;;
58097;SDS011;43913;55.940;37.504;2023-03-23T09:01:48;8.55;;;4.40;;
58097;SDS011;43913;55.940;37.504;2023-03-23T09:04:35;5.75;;;4.60;;
58097;SDS011;43913;55.940;37.504;2023-03-23T09:07:22;5.97;;;3.90;;
58097;SDS011;43913;55.940;37.504;2023-03-23T09:09:49;4.38;;;3.97;;
58097;SDS011;43913;55.940;37.504;2023-03-23T09:12:14;3.88;;;2.85;;
58097;SDS011;43913;55.940;37.504;2023-03-23T09:14:40;6.28;;;4.30;;
58097;SDS011;43913;55.940;37.504;2023-03-23T09:17:07;6.43;;;3.90;;
58097;SDS011;43913;55.940;37.504;2023-03-23T09:19:34;6.75;;;4.07;;
58097;SDS011;43913;55.940;37.504;2023-03-23T09:22:00;5.30;;;4.15;;
58097;SDS011;43913;55.940;37.504;2023-03-23T09:24:27;6.90;;;4.03;;
58097;SDS011;43913;55.940;37.504;2023-03-23T09:26:52;4.05;;;3.65;;
58097;SDS011;43913;55.940;37.504;2023-03-23T09:29:18;7.15;;;4.50;;
58097;SDS011;43913;55.940;37.504;2023-03-23T09:31:46;4.07;;;3.78;;
58097;SDS011;43913;55.940;37.504;2023-03-23T09:34:12;4.60;;;4.20;;
58097;SDS011;43913;55.940;37.504;2023-03-23T09:36:41;4.65;;;4.22;;
58097;SDS011;43913;55.940;37.504;2023-03-23T09:39:08;7.75;;;4.80;;
58097;SDS011;43913;55.940;37.504;2023-03-23T09:41:40;8.38;;;4.25;;
58097;SDS011;43913;55.940;37.504;2023-03-23T09:49:13;8.45;;;4.85;;
58097;SDS011;43913;55.940;37.504;2023-03-23T09:54:41;12.60;;;9.98;;
58097;SDS011;43913;55.940;37.504;2023-03-23T11:36:52;6.00;;;2.83;;
58097;SDS011;43913;55.940;37.504;2023-03-23T11:39:30;4.00;;;3.00;;
58097;SDS011;43913;55.940;37.504;2023-03-23T11:41:58;3.15;;;2.85;;
58097;SDS011;43913;55.940;37.504;2023-03-23T11:44:40;6.78;;;3.25;;
58097;SDS011;43913;55.940;37.504;2023-03-23T11:50:13;5.97;;;2.80;;
58097;SDS011;43913;55.940;37.504;2023-03-23T11:55:34;7.18;;;2.92;;
58097;SDS011;43913;55.940;37.504;2023-03-23T11:58:17;3.50;;;3.20;;
58097;SDS011;43913;55.940;37.504;2023-03-23T12:00:51;6.25;;;2.60;;
58097;SDS011;43913;55.940;37.504;2023-03-23T12:03:22;4.93;;;3.25;;
58097;SDS011;43913;55.940;37.504;2023-03-23T12:06:07;3.63;;;3.00;;
58097;SDS011;43913;55.940;37.504;2023-03-23T12:11:30;4.82;;;3.03;;
58097;SDS011;43913;55.940;37.504;2023-03-23T12:14:11;2.72;;;2.47;;
58097;SDS011;43913;55.940;37.504;2023-03-23T12:19:42;4.68;;;3.45;;
58097;SDS011;43913;55.940;37.504;2023-03-23T13:02:04;10.52;;;3.28;;
58097;SDS011;43913;55.940;37.504;2023-03-23T13:04:38;6.63;;;3.35;;
58097;SDS011;43913;55.940;37.504;2023-03-23T13:41:46;6.55;;;3.30;;
58097;SDS011;43913;55.940;37.504;2023-03-23T13:44:18;7.85;;;3.53;;
58097;SDS011;43913;55.940;37.504;2023-03-23T13:47:05;9.98;;;3.55;;
58097;SDS011;43913;55.940;37.504;2023-03-23T13:49:44;7.47;;;3.45;;
58097;SDS011;43913;55.940;37.504;2023-03-23T13:52:58;8.43;;;3.80;;
58097;SDS011;43913;55.940;37.504;2023-03-23T14:00:34;4.15;;;3.03;;
58097;SDS011;43913;55.940;37.504;2023-03-23T14:03:11;8.68;;;3.67;;
58097;SDS011;43913;55.940;37.504;2023-03-23T14:05:43;6.97;;;3.37;;
58097;SDS011;43913;55.940;37.504;2023-03-23T14:11:10;6.15;;;3.85;;
58097;SDS011;43913;55.940;37.504;2023-03-23T14:13:50;7.18;;;4.22;;
58097;SDS011;43913;55.940;37.504;2023-03-23T14:16:24;8.43;;;3.60;;
58097;SDS011;43913;55.940;37.504;2023-03-23T14:18:56;19.92;;;5.18;;
58097;SDS011;43913;55.940;37.504;2023-03-23T14:24:04;53.53;;;9.13;;
58097;SDS011;43913;55.940;37.504;2023-03-23T14:26:34;59.00;;;7.90;;
58097;SDS011;43913;55.940;37.504;2023-03-23T14:29:01;23.27;;;5.50;;
58097;SDS011;43913;55.940;37.504;2023-03-23T14:31:27;47.33;;;6.28;;
58097;SDS011;43913;55.940;37.504;2023-03-23T14:33:54;33.45;;;6.78;;
58097;SDS011;43913;55.940;37.504;2023-03-23T14:36:28;25.52;;;5.13;;
58097;SDS011;43913;55.940;37.504;2023-03-23T14:39:03;12.60;;;4.45;;
58097;SDS011;43913;55.940;37.504;2023-03-23T14:41:31;15.18;;;5.47;;
58097;SDS011;43913;55.940;37.504;2023-03-23T14:44:01;13.40;;;4.85;;
58097;SDS011;43913;55.940;37.504;2023-03-23T14:46:29;7.75;;;4.22;;
58097;SDS011;43913;55.940;37.504;2023-03-23T14:48:55;5.85;;;3.47;;
58097;SDS011;43913;55.940;37.504;2023-03-23T14:51:22;9.27;;;4.50;;
58097;SDS011;43913;55.940;37.504;2023-03-23T14:53:47;9.20;;;3.65;;
58097;SDS011;43913;55.940;37.504;2023-03-23T14:56:16;8.00;;;3.53;;
58097;SDS011;43913;55.940;37.504;2023-03-23T14:58:50;6.28;;;3.35;;
58097;SDS011;43913;55.940;37.504;2023-03-23T15:01:22;7.30;;;4.35;;
58097;SDS011;43913;55.940;37.504;2023-03-23T15:03:59;8.95;;;4.07;;
58097;SDS011;43913;55.940;37.504;2023-03-23T15:06:50;6.05;;;3.28;;
58097;SDS011;43913;55.940;37.504;2023-03-23T15:09:19;5.07;;;3.63;;
58097;SDS011;43913;55.940;37.504;2023-03-23T15:11:54;6.03;;;4.28;;
58097;SDS011;43913;55.940;37.504;2023-03-23T15:14:29;5.38;;;3.75;;
58097;SDS011;43913;55.940;37.504;2023-03-23T15:16:58;7.00;;;3.92;;
58097;SDS011;43913;55.940;37.504;2023-03-23T15:19:31;4.47;;;3.65;;
58097;SDS011;43913;55.940;37.504;2023-03-23T15:24:39;7.32;;;4.45;;
58097;SDS011;43913;55.940;37.504;2023-03-23T15:29:31;5.18;;;4.07;;
58097;SDS011;43913;55.940;37.504;2023-03-23T15:31:57;4.75;;;3.60;;
58097;SDS011;43913;55.940;37.504;2023-03-23T15:37:05;6.50;;;4.20;;
58097;SDS011;43913;55.940;37.504;2023-03-23T15:39:41;7.47;;;4.55;;
58097;SDS011;43913;55.940;37.504;2023-03-23T15:42:07;8.25;;;4.07;;
58097;SDS011;43913;55.940;37.504;2023-03-23T15:44:54;6.55;;;3.70;;
58097;SDS011;43913;55.940;37.504;2023-03-23T15:47:36;7.63;;;3.97;;
58097;SDS011;43913;55.940;37.504;2023-03-23T15:50:17;7.78;;;3.92;;
58097;SDS011;43913;55.940;37.504;2023-03-23T15:52:43;5.55;;;4.10;;
58097;SDS011;43913;55.940;37.504;2023-03-23T15:55:18;6.22;;;4.13;;
58097;SDS011;43913;55.940;37.504;2023-03-23T15:57:48;5.20;;;4.38;;
58097;SDS011;43913;55.940;37.504;2023-03-23T16:00:15;5.70;;;4.20;;
58097;SDS011;43913;55.940;37.504;2023-03-23T16:02:42;6.53;;;4.35;;
58097;SDS011;43913;55.940;37.504;2023-03-23T16:05:11;6.70;;;3.80;;
58097;SDS011;43913;55.940;37.504;2023-03-23T16:07:37;7.15;;;4.63;;
58097;SDS011;43913;55.940;37.504;2023-03-23T16:10:03;7.43;;;5.03;;
58097;SDS011;43913;55.940;37.504;2023-03-23T16:12:31;6.72;;;4.68;;
58097;SDS011;43913;55.940;37.504;2023-03-23T16:14:58;5.05;;;3.92;;
58097;SDS011;43913;55.940;37.504;2023-03-23T16:17:23;5.22;;;4.28;;
58097;SDS011;43913;55.940;37.504;2023-03-23T16:19:50;8.38;;;4.63;;
58097;SDS011;43913;55.940;37.504;2023-03-23T16:22:15;5.20;;;4.28;;
58097;SDS011;43913;55.940;37.504;2023-03-23T16:24:41;5.47;;;4.47;;
58097;SDS011;43913;55.940;37.504;2023-03-23T16:27:10;7.15;;;4.63;;
58097;SDS011;43913;55.940;37.504;2023-03-23T16:29:36;10.70;;;4.63;;
58097;SDS011;43913;55.940;37.504;2023-03-23T16:32:01;8.73;;;4.13;;
58097;SDS011;43913;55.940;37.504;2023-03-23T16:34:27;6.22;;;4.50;;
58097;SDS011;43913;55.940;37.504;2023-03-23T16:36:57;7.22;;;4.55;;
58097;SDS011;43913;55.940;37.504;2023-03-23T16:39:22;7.85;;;4.68;;
58097;SDS011;43913;55.940;37.504;2023-03-23T16:41:48;8.52;;;5.22;;
58097;SDS011;43913;55.940;37.504;2023-03-23T16:44:14;6.10;;;4.70;;
58097;SDS011;43913;55.940;37.504;2023-03-23T16:46:40;7.18;;;4.90;;
58097;SDS011;43913;55.940;37.504;2023-03-23T16:49:05;7.18;;;5.10;;
58097;SDS011;43913;55.940;37.504;2023-03-23T16:51:31;9.68;;;4.90;;
58097;SDS011;43913;55.940;37.504;2023-03-23T16:53:57;8.00;;;4.40;;
58097;SDS011;43913;55.940;37.504;2023-03-23T16:56:22;5.70;;;4.28;;
58097;SDS011;43913;55.940;37.504;2023-03-23T16:58:48;6.13;;;4.63;;
58097;SDS011;43913;55.940;37.504;2023-03-23T17:01:14;6.47;;;4.43;;
58097;SDS011;43913;55.940;37.504;2023-03-23T17:03:40;8.98;;;4.75;;
58097;SDS011;43913;55.940;37.504;2023-03-23T17:06:06;8.10;;;4.80;;
58097;SDS011;43913;55.940;37.504;2023-03-23T17:08:33;6.15;;;4.38;;
58097;SDS011;43913;55.940;37.504;2023-03-23T17:10:59;8.45;;;5.00;;
58097;SDS011;43913;55.940;37.504;2023-03-23T17:13:25;8.45;;;5.25;;
58097;SDS011;43913;55.940;37.504;2023-03-23T17:15:54;10.63;;;5.53;;
58097;SDS011;43913;55.940;37.504;2023-03-23T17:18:22;7.68;;;5.45;;
58097;SDS011;43913;55.940;37.504;2023-03-23T17:20:50;7.38;;;4.60;;
58097;SDS011;43913;55.940;37.504;2023-03-23T17:23:17;11.38;;;6.07;;
58097;SDS011;43913;55.940;37.504;2023-03-23T17:25:43;8.32;;;5.68;;
58097;SDS011;43913;55.940;37.504;2023-03-23T17:28:10;5.82;;;4.97;;
58097;SDS011;43913;55.940;37.504;2023-03-23T17:30:38;6.25;;;5.05;;
58097;SDS011;43913;55.940;37.504;2023-03-23T17:33:05;6.53;;;4.35;;
58097;SDS011;43913;55.940;37.504;2023-03-23T17:35:31;7.93;;;5.35;;
58097;SDS011;43913;55.940;37.504;2023-03-23T17:37:57;7.22;;;5.32;;
58097;SDS011;43913;55.940;37.504;2023-03-23T17:40:23;10.60;;;6.07;;
58097;SDS011;43913;55.940;37.504;2023-03-23T17:42:48;8.30;;;4.78;;
58097;SDS011;43913;55.940;37.504;2023-03-23T17:45:14;9.82;;;5.50;;
58097;SDS011;43913;55.940;37.504;2023-03-23T17:47:40;8.02;;;4.88;;
58097;SDS011;43913;55.940;37.504;2023-03-23T17:50:07;6.18;;;4.28;;
58097;SDS011;43913;55.940;37.504;2023-03-23T17:52:33;6.30;;;4.70;;
58097;SDS011;43913;55.940;37.504;2023-03-23T17:54:59;6.22;;;4.72;;
58097;SDS011;43913;55.940;37.504;2023-03-23T17:57:24;8.20;;;4.57;;
58097;SDS011;43913;55.940;37.504;2023-03-23T17:59:50;7.43;;;5.45;;
58097;SDS011;43913;55.940;37.504;2023-03-23T18:02:16;6.57;;;4.85;;
58097;SDS011;43913;55.940;37.504;2023-03-23T18:04:43;7.07;;;4.63;;
58097;SDS011;43913;55.940;37.504;2023-03-23T18:07:10;8.05;;;5.07;;
58097;SDS011;43913;55.940;37.504;2023-03-23T18:09:37;7.28;;;5.15;;
58097;SDS011;43913;55.940;37.504;2023-03-23T18:12:03;14.18;;;5.53;;
58097;SDS011;43913;55.940;37.504;2023-03-23T18:14:29;6.00;;;5.07;;
58097;SDS011;43913;55.940;37.504;2023-03-23T18:16:54;7.60;;;5.20;;
58097;SDS011;43913;55.940;37.504;2023-03-23T18:19:20;7.10;;;4.47;;
58097;SDS011;43913;55.940;37.504;2023-03-23T18:21:46;6.82;;;4.97;;
58097;SDS011;43913;55.940;37.504;2023-03-23T18:24:12;6.28;;;4.85;;
58097;SDS011;43913;55.940;37.504;2023-03-23T18:26:38;6.47;;;5.20;;
58097;SDS011;43913;55.940;37.504;2023-03-23T18:29:04;6.90;;;5.13;;
58097;SDS011;43913;55.940;37.504;2023-03-23T18:31:30;5.70;;;5.07;;
58097;SDS011;43913;55.940;37.504;2023-03-23T18:33:56;8.95;;;6.03;;
58097;SDS011;43913;55.940;37.504;2023-03-23T18:36:23;6.57;;;5.25;;
58097;SDS011;43913;55.940;37.504;2023-03-23T18:38:50;8.13;;;5.28;;
58097;SDS011;43913;55.940;37.504;2023-03-23T18:41:19;7.95;;;5.53;;
58097;SDS011;43913;55.940;37.504;2023-03-23T18:43:45;7.97;;;6.03;;
58097;SDS011;43913;55.940;37.504;2023-03-23T18:46:11;7.95;;;5.85;;
58097;SDS011;43913;55.940;37.504;2023-03-23T18:48:37;7.25;;;5.70;;
58097;SDS011;43913;55.940;37.504;2023-03-23T18:51:02;8.18;;;6.50;;